Dades meteomassalio
Diari Summary for Setembre 15, 2017 Units:  Metric    English   Both
« Previous Day
Next Day »
Diari Semanal Mensual Anual Personalitzat
  Maxima: Minima: Mijana:
Temperatura: -17.8 °C -13.2 °C -10.6 °C
Rosada: -17.8 °C -15.2 °C -13.4 °C
Humitat: Humidity % 50 % 73 %
Velocitat del vent: 0 km/h 0 km/h 15.4 km/h
Racha vent: 0 km/h - -
Vent:- - SSW
Pressio: 0 hPa 34428.8 hPa -
Pluja: 213.36 mm    
Historical Graphs
 
 
Tabular Data for Setembre 15, 2017
Time Temperature Dew Point Pressure Wind Wind Speed Wind Gust Humidity Rainfall Rate (Hourly) solar Conditions
-17.8 °C -17.8 °C 0 hPa Calm     Humidity % 0 mm SolarRadiationWatts/m^2 W/m2 Conditions
00:04 -8.5 °C -14.3 °C 34554.1 hPa SSW 31.1 km/h 31.1 km/h 50 % 0 mm 0.0 W/m2 CLR
00:09 -8.5 °C -14.3 °C 34554.1 hPa SSW 29.8 km/h 29.8 km/h 50 % 0 mm 0.0 W/m2 CLR
00:14 -8.5 °C -14.3 °C 34554.1 hPa South 17.9 km/h 17.9 km/h 50 % 0 mm 0.0 W/m2 CLR
00:19 -8.5 °C -14.2 °C 34554.1 hPa South 17.9 km/h 17.9 km/h 51 % 0 mm 0.0 W/m2 CLR
00:24 -8.5 °C -14.2 °C 34554.1 hPa SSW 20.9 km/h 20.9 km/h 51 % 0 mm 0.0 W/m2 CLR
00:29 -8.8 °C -14.5 °C 34554.1 hPa South 6 km/h 6 km/h 51 % 0 mm 0.0 W/m2 CLR
00:34 -8.8 °C -14.3 °C 34554.1 hPa SSW 29.8 km/h 29.8 km/h 52 % 0 mm 0.0 W/m2 CLR
00:39 -8.8 °C -14.5 °C 34554.1 hPa SSE 20.9 km/h 20.9 km/h 51 % 0 mm 0.0 W/m2 CLR
00:44 -8.8 °C -14.5 °C 34554.1 hPa South 11.9 km/h 11.9 km/h 51 % 0 mm 0.0 W/m2 CLR
00:49 -8.8 °C -14.5 °C 34554.1 hPa SW 29.8 km/h 29.8 km/h 51 % 0 mm 0.0 W/m2 CLR
00:54 -9.1 °C -14.6 °C 34554.1 hPa SSE 23.8 km/h 23.8 km/h 52 % 0 mm 0.0 W/m2 CLR
00:59 -9.1 °C -14.6 °C 34554.1 hPa SSW 20.8 km/h 20.8 km/h 52 % 0 mm 0.0 W/m2 CLR
01:04 -9.1 °C -14.6 °C 34554.1 hPa South 26.9 km/h 26.9 km/h 52 % 0 mm 0.0 W/m2 CLR
01:09 -9.1 °C -14.8 °C 34554.1 hPa South 23.8 km/h 23.8 km/h 51 % 0 mm 0.0 W/m2 CLR
01:14 -9.1 °C -14.8 °C 34544 hPa SSW 29.8 km/h 29.8 km/h 51 % 0 mm 0.0 W/m2 CLR
01:19 -9.4 °C -15.2 °C 34544 hPa SSW 26.9 km/h 26.9 km/h 50 % 0 mm 0.0 W/m2 CLR
01:24 -9.4 °C -15.2 °C 34544 hPa SSW 20.9 km/h 20.9 km/h 50 % 0 mm 0.0 W/m2 CLR
01:29 -9.1 °C -14.9 °C 34544 hPa South 20.9 km/h 20.9 km/h 50 % 0 mm 0.0 W/m2 CLR
01:34 -9.4 °C -15.1 °C 34544 hPa Calm     51 % 0 mm 0.0 W/m2 CLR
01:39 -9.4 °C -15.2 °C 34544 hPa Calm     50 % 0 mm 0.0 W/m2 CLR
01:44 -9.4 °C -15.2 °C 34544 hPa SSE 3.1 km/h 3.1 km/h 50 % 0 mm 0.0 W/m2 CLR
01:49 -9.4 °C -15.2 °C 34533.8 hPa SSW 6 km/h 6 km/h 50 % 0 mm 0.0 W/m2 CLR
01:54 -9.1 °C -14.9 °C 34533.8 hPa South 15 km/h 15 km/h 50 % 0 mm 0.0 W/m2 CLR
01:59 -9.1 °C -14.9 °C 34533.8 hPa SSW 26.9 km/h 26.9 km/h 50 % 0 mm 0.0 W/m2 CLR
02:04 -9.1 °C -14.8 °C 34533.8 hPa South 2.6 km/h   51 % 0 mm 0.0 W/m2 CLR
02:09 -9.4 °C -15.1 °C 34533.8 hPa South 9 km/h 9 km/h 51 % 0 mm 0.0 W/m2 CLR
02:14 -9.4 °C -15.1 °C 34533.8 hPa Calm     51 % 0 mm 0.0 W/m2 CLR
02:19 -9.4 °C -15.1 °C 34533.8 hPa Calm     51 % 0 mm 0.0 W/m2 CLR
02:24 -9.1 °C -14.6 °C 34533.8 hPa Calm     52 % 0 mm 0.0 W/m2 CLR
02:29 -9.1 °C -14.6 °C 34533.8 hPa Calm     52 % 0 mm 0.0 W/m2 CLR
02:34 -9.1 °C -14.6 °C 34533.8 hPa Calm     52 % 0 mm 0.0 W/m2 CLR
02:39 -9.1 °C -14.6 °C 34520.3 hPa Calm     52 % 0 mm 0.0 W/m2 CLR
02:44 -9.4 °C -14.7 °C 34520.3 hPa Calm     53 % 0 mm 0.0 W/m2 CLR
02:49 -9.4 °C -14.7 °C 34520.3 hPa South 3.1 km/h   53 % 0 mm 0.0 W/m2 CLR
02:54 -9.4 °C -14.7 °C 34520.3 hPa Calm     53 % 0 mm 0.0 W/m2 CLR
02:59 -9.4 °C -14.7 °C 34520.3 hPa Calm     53 % 0 mm 0.0 W/m2 CLR
03:04 -9.4 °C -14.6 °C 34520.3 hPa Calm     54 % 0 mm 0.0 W/m2 CLR
03:09 -9.4 °C -14.6 °C 34520.3 hPa Calm     54 % 0 mm 0.0 W/m2 CLR
03:14 -9.4 °C -14.4 °C 34520.3 hPa Calm     55 % 0 mm 0.0 W/m2 CLR
03:19 -9.4 °C -14.4 °C 34510.1 hPa Calm     55 % 0 mm 0.0 W/m2 CLR
03:24 -9.4 °C -14.3 °C 34510.1 hPa SSW 11.9 km/h 11.9 km/h 56 % 0 mm 0.0 W/m2 CLR
03:29 -9.4 °C -14.3 °C 34510.1 hPa SSW 20.9 km/h 20.9 km/h 56 % 0 mm 0.0 W/m2 CLR
03:34 -9.4 °C -14.3 °C 34510.1 hPa SSW 9 km/h 9 km/h 56 % 0 mm 0.0 W/m2 CLR
03:39 -9.4 °C -14.3 °C 34510.1 hPa SSW 26.9 km/h 26.9 km/h 56 % 0 mm 0.0 W/m2 CLR
03:44 -9.4 °C -14.3 °C 34510.1 hPa SSW 9 km/h 9 km/h 56 % 0 mm 0.0 W/m2 CLR
03:49 -9.4 °C -14.3 °C 34510.1 hPa SSW 9 km/h 9 km/h 56 % 0 mm 0.0 W/m2 CLR
03:54 -9.4 °C -14.1 °C 34510.1 hPa SSW 9 km/h   57 % 0 mm 0.0 W/m2 CLR
03:59 -9.4 °C -14.1 °C 34510.1 hPa Calm     57 % 0 mm 0.0 W/m2 CLR
04:04 -9.4 °C -14.1 °C 34496.6 hPa Calm     57 % 0 mm 0.0 W/m2 CLR
04:09 -9.4 °C -14.1 °C 34496.6 hPa Calm     57 % 0 mm 0.0 W/m2 CLR
04:14 -9.4 °C -14.1 °C 34496.6 hPa Calm     57 % 0 mm 0.0 W/m2 CLR
04:20 -9.4 °C -14.1 °C 34486.4 hPa Calm     57 % 0 mm 0.0 W/m2 CLR
04:25 -9.4 °C -14.1 °C 34486.4 hPa Calm     57 % 0 mm 0.0 W/m2 CLR
04:30 -9.4 °C -14.3 °C 34486.4 hPa SSW 9 km/h 9 km/h 56 % 0 mm 0.0 W/m2 CLR
04:35 -9.4 °C -14.3 °C 34486.4 hPa SSW 9 km/h 9 km/h 56 % 0 mm 0.0 W/m2 CLR
04:40 -9.4 °C -14.4 °C 34486.4 hPa SW 17.9 km/h 17.9 km/h 55 % 0 mm 0.0 W/m2 CLR
04:45 -9.4 °C -14.4 °C 34486.4 hPa SW 23.8 km/h 23.8 km/h 55 % 0 mm 0.0 W/m2 CLR
04:50 -9.4 °C -14.4 °C 34486.4 hPa WSW 29.8 km/h 29.8 km/h 55 % 0 mm 0.0 W/m2 CLR
04:55 -9.4 °C -14.6 °C 34486.4 hPa SSW 29.8 km/h 29.8 km/h 54 % 0 mm 0.0 W/m2 CLR
05:00 -9.4 °C -14.4 °C 34486.4 hPa SW 18.2 km/h 18.2 km/h 55 % 0 mm 0.0 W/m2 CLR
05:05 -9.4 °C -14.6 °C 34486.4 hPa SW 10.3 km/h 10.3 km/h 54 % 0 mm 0.0 W/m2 CLR
05:10 -9.4 °C -14.6 °C 34486.4 hPa SW 26.9 km/h 26.9 km/h 54 % 0 mm 0.0 W/m2 CLR
05:15 -9.4 °C -14.6 °C 34486.4 hPa SW 23.8 km/h 23.8 km/h 54 % 0 mm 0.0 W/m2 CLR
05:21 -9.4 °C -14.4 °C 34486.4 hPa SW 20.9 km/h 20.9 km/h 55 % 0 mm 0.0 W/m2 CLR
05:22 -9.4 °C -14.4 °C 34486.4 hPa WSW 23.8 km/h 23.8 km/h 55 % 0 mm 0.0 W/m2 CLR
05:27 -9.4 °C -14.4 °C 34486.4 hPa SW 15.6 km/h 15.6 km/h 55 % 0 mm 0.0 W/m2 CLR
05:32 -9.4 °C -14.4 °C 34486.4 hPa Calm     55 % 0 mm 0.0 W/m2 CLR
05:33 -9.4 °C -14.3 °C 34486.4 hPa Calm     56 % 0 mm 0.0 W/m2 CLR
05:38 -9.4 °C -14.3 °C 34486.4 hPa Calm     56 % 0 mm 0.0 W/m2 CLR
05:48 -9.8 °C -14.6 °C 34486.4 hPa Calm     56 % 0 mm 0.0 W/m2 CLR
05:53 -9.8 °C -14.4 °C 34486.4 hPa WSW 23.8 km/h 23.8 km/h 57 % 0 mm 0.0 W/m2 CLR
05:58 -9.8 °C -14.4 °C 34486.4 hPa WSW 23.8 km/h 23.8 km/h 57 % 0 mm 0.0 W/m2 CLR
06:03 -9.8 °C -14.3 °C 34486.4 hPa WSW 23.8 km/h 23.8 km/h 58 % 0 mm 0.0 W/m2 CLR
06:08 -9.8 °C -14.3 °C 34486.4 hPa SW 17.9 km/h 18.8 km/h 58 % 0 mm 0.0 W/m2 CLR
06:13 -9.8 °C -14.3 °C 34486.4 hPa SSW 17.9 km/h 17.9 km/h 58 % 0 mm 0.0 W/m2 CLR
06:18 -9.8 °C -14.2 °C 34486.4 hPa SW 26.9 km/h 26.9 km/h 59 % 0 mm 0.0 W/m2 CLR
06:23 -9.8 °C -14.2 °C 34486.4 hPa SW 35.7 km/h 35.7 km/h 59 % 0 mm 0.0 W/m2 CLR
06:28 -9.8 °C -14 °C 34486.4 hPa SW 26.9 km/h 26.9 km/h 60 % 0 mm 0.0 W/m2 CLR
06:33 -9.8 °C -13.9 °C 34486.4 hPa SW 26.9 km/h 26.9 km/h 61 % 0 mm 0.0 W/m2 CLR
06:38 -9.8 °C -13.9 °C 34486.4 hPa SW 17.9 km/h 17.9 km/h 61 % 0 mm 0.0 W/m2 CLR
06:43 -9.8 °C -13.9 °C 34476.3 hPa SW 29.8 km/h 29.8 km/h 61 % 0 mm 0.0 W/m2 CLR
06:48 -9.8 °C -13.9 °C 34476.3 hPa SSW 18.2 km/h 18.2 km/h 61 % 0 mm 0.0 W/m2 CLR
06:53 -9.8 °C -13.9 °C 34476.3 hPa SSW 23.8 km/h 23.8 km/h 61 % 0 mm 0.0 W/m2 CLR
06:58 -9.8 °C -13.8 °C 34476.3 hPa SSW 26.9 km/h 26.9 km/h 62 % 0 mm 0.0 W/m2 CLR
07:03 -9.8 °C -13.8 °C 34476.3 hPa SW 20.9 km/h 20.9 km/h 62 % 0 mm 0.0 W/m2 CLR
07:04 -9.8 °C -13.8 °C 34476.3 hPa SW 20.9 km/h 20.9 km/h 62 % 0 mm 0.0 W/m2 CLR
07:09 -9.8 °C -13.8 °C 34476.3 hPa SSW 23.8 km/h 23.8 km/h 62 % 0 mm 0.0 W/m2 CLR
07:14 -10.1 °C -14.1 °C 34476.3 hPa SSW 20.9 km/h 20.9 km/h 62 % 0 mm 0.0 W/m2 CLR
07:19 -10.1 °C -14.1 °C 34476.3 hPa SW 23.8 km/h 23.8 km/h 62 % 0 mm 0.0 W/m2 CLR
07:24 -10.1 °C -14.1 °C 34476.3 hPa South 23.8 km/h 23.8 km/h 62 % 0 mm 0.0 W/m2 CLR
07:29 -10.1 °C -14.1 °C 34476.3 hPa SSW 25.9 km/h 25.9 km/h 62 % 0 mm 0.0 W/m2 CLR
07:34 -10.1 °C -14.1 °C 34476.3 hPa SW 29.8 km/h 29.8 km/h 62 % 0 mm 0.0 W/m2 OVC
07:39 -10.1 °C -13.9 °C 34476.3 hPa SSW 26.9 km/h 26.9 km/h 63 % 0 mm 0.0 W/m2 OVC
07:44 -10.1 °C -13.9 °C 34476.3 hPa SSW 23.8 km/h 23.8 km/h 63 % 0 mm 0.0 W/m2 OVC
07:49 -10.1 °C -13.9 °C 34476.3 hPa SW 23.8 km/h 23.8 km/h 63 % 0 mm 5.0 W/m2 OVC
07:54 -10.1 °C -13.9 °C 34476.3 hPa SSW 23.8 km/h 23.8 km/h 63 % 0 mm 5.0 W/m2 OVC
07:59 -10.1 °C -13.9 °C 34476.3 hPa SW 26.9 km/h 26.9 km/h 63 % 0 mm 7.0 W/m2 BKN
08:04 -10.1 °C -13.9 °C 34476.3 hPa SW 29.8 km/h 29.8 km/h 63 % 0 mm 14.0 W/m2 BKN
08:09 -10.1 °C -13.9 °C 34476.3 hPa SSW 20.8 km/h 20.8 km/h 63 % 0 mm 19.0 W/m2 BKN
08:14 -10.1 °C -13.9 °C 34476.3 hPa SSW 11.9 km/h 11.9 km/h 63 % 0 mm 25.0 W/m2 BKN
08:19 -10.1 °C -13.8 °C 34476.3 hPa Calm     64 % 0 mm 32.0 W/m2 BKN
08:24 -10.1 °C -13.8 °C 34476.3 hPa SSW 26.9 km/h 26.9 km/h 64 % 0 mm 37.0 W/m2 BKN
08:29 -10.1 °C -13.8 °C 34476.3 hPa SW 29.8 km/h 29.8 km/h 64 % 0 mm 37.0 W/m2 BKN
08:34 -10.1 °C -13.8 °C 34476.3 hPa SW 32.8 km/h 32.8 km/h 64 % 0 mm 47.0 W/m2 BKN
08:39 -10.1 °C -13.8 °C 34476.3 hPa SW 29.8 km/h 29.8 km/h 64 % 0 mm 37.0 W/m2 BKN
08:44 -10.1 °C -13.7 °C 34476.3 hPa SW 31.1 km/h 31.1 km/h 65 % 0 mm 47.0 W/m2 BKN
08:49 -9.8 °C -13.2 °C 34476.3 hPa SW 23.8 km/h 23.8 km/h 66 % 0 mm 69.0 W/m2 SCT
08:54 -10.1 °C -13.7 °C 34476.3 hPa SW 29.8 km/h 29.8 km/h 65 % 0 mm 84.0 W/m2 FEW
08:59 -9.8 °C -13.4 °C 34476.3 hPa South 20.9 km/h 20.9 km/h 65 % 0 mm 76.0 W/m2 FEW
09:04 -9.8 °C -13.4 °C 34476.3 hPa SW 26.9 km/h 26.9 km/h 65 % 0 mm 49.0 W/m2 FEW
09:09 -9.8 °C -13.2 °C 34476.3 hPa South 29.8 km/h 29.8 km/h 66 % 0 mm 54.0 W/m2 SCT
09:14 -10.1 °C -13.6 °C 34476.3 hPa South 32.8 km/h 32.8 km/h 66 % 0 mm 63.0 W/m2 SCT
09:19 -10.1 °C -13.4 °C 34476.3 hPa SSW 29.8 km/h 29.8 km/h 67 % 0 mm 44.0 W/m2 SCT
09:24 -10.1 °C -13.6 °C 34476.3 hPa SW 29.8 km/h 29.8 km/h 66 % 0 mm 30.0 W/m2 SCT
09:29 -10.1 °C -13.4 °C 34476.3 hPa SW 28.5 km/h 28.5 km/h 67 % 0 mm 25.0 W/m2 BKN
09:34 -10.1 °C -13.4 °C 34486.4 hPa SW 29.8 km/h 29.8 km/h 67 % 0 mm 35.0 W/m2 BKN
09:39 -10.1 °C -13.3 °C 34486.4 hPa SW 29.8 km/h 29.8 km/h 68 % 0 mm 46.0 W/m2 BKN
09:44 -10.1 °C -13.3 °C 34486.4 hPa WSW 29.8 km/h 29.8 km/h 68 % 0 mm 44.0 W/m2 BKN
09:49 -10.1 °C -13.3 °C 34486.4 hPa SW 29.8 km/h 29.8 km/h 68 % 0 mm 33.0 W/m2 BKN
09:54 -10.1 °C -13.3 °C 34486.4 hPa WSW 29.8 km/h 29.8 km/h 68 % 0 mm 37.0 W/m2 BKN
09:59 -10.1 °C -13.3 °C 34486.4 hPa WSW 23.3 km/h 23.3 km/h 68 % 0 mm 44.0 W/m2 BKN
10:04 -10.1 °C -13.2 °C 34486.4 hPa WSW 23.8 km/h 23.8 km/h 69 % 0 mm 53.0 W/m2 BKN
10:09 -10.1 °C -13.2 °C 34476.3 hPa WSW 23.8 km/h 23.8 km/h 69 % 0 mm 86.0 W/m2 SCT
10:14 -10.1 °C -13.2 °C 34486.4 hPa West 26.9 km/h 26.9 km/h 69 % 0 mm 70.0 W/m2 FEW
10:19 -10.1 °C -13.2 °C 34486.4 hPa WSW 29.8 km/h 29.8 km/h 69 % 0 mm 76.0 W/m2 FEW
10:20 -10.1 °C -13.2 °C 34486.4 hPa SW 29.8 km/h 29.8 km/h 69 % 0 mm 76.0 W/m2 FEW
10:25 -10.1 °C -13.1 °C 34486.4 hPa WSW 23.8 km/h 23.8 km/h 70 % 0 mm 88.0 W/m2 FEW
10:30 -10.1 °C -13.1 °C 34486.4 hPa West 29.8 km/h 29.8 km/h 70 % 0 mm 56.0 W/m2 FEW
10:35 -10.1 °C -13.1 °C 34496.6 hPa SW 26.9 km/h 26.9 km/h 70 % 0 mm 54.0 W/m2 FEW
10:40 -10.1 °C -13.1 °C 34496.6 hPa WSW 23.8 km/h 23.8 km/h 70 % 0 mm 53.0 W/m2 SCT
10:45 -10.1 °C -13.1 °C 34496.6 hPa WSW 29.8 km/h 29.8 km/h 70 % 0 mm 46.0 W/m2 SCT
10:50 -10.1 °C -13.1 °C 34496.6 hPa WSW 32.8 km/h 32.8 km/h 70 % 0 mm 51.0 W/m2 SCT
10:55 -10.1 °C -12.9 °C 34496.6 hPa West 25.9 km/h 25.9 km/h 71 % 0 mm 47.0 W/m2 SCT
11:00 -10.4 °C -13.2 °C 34496.6 hPa West 23.8 km/h 23.8 km/h 71 % 0 mm 84.0 W/m2 SCT
11:05 -10.4 °C -13.2 °C 34496.6 hPa WSW 20.9 km/h 20.9 km/h 71 % 0 mm 65.0 W/m2 SCT
11:10 -10.4 °C -13 °C 34496.6 hPa SW 23.8 km/h 23.8 km/h 73 % 0 mm 77.0 W/m2 FEW
11:15 -10.4 °C -12.8 °C 34496.6 hPa WSW 29.8 km/h 29.8 km/h 75 % 0 mm 93.0 W/m2 FEW
11:20 -10.4 °C -12.6 °C 34486.4 hPa WSW 23.8 km/h 23.8 km/h 77 % 0 mm 127.0 W/m2 CLR
11:25 -10.4 °C -12.6 °C 34486.4 hPa SSW 23.8 km/h 23.8 km/h 77 % 0 mm 81.0 W/m2 CLR
11:30 -10.7 °C -12.9 °C 34496.6 hPa SSW 20.9 km/h 20.9 km/h 77 % 0 mm 84.0 W/m2 CLR
11:35 -10.7 °C -12.9 °C 34496.6 hPa WSW 29.8 km/h 29.8 km/h 77 % 0 mm 70.0 W/m2 FEW
11:40 -10.7 °C -12.9 °C 34496.6 hPa SW 38.8 km/h 38.8 km/h 76 % 0 mm 90.0 W/m2 FEW
11:45 -10.7 °C -12.9 °C 34496.6 hPa SSW 20.9 km/h 20.9 km/h 76 % 0 mm 107.0 W/m2 CLR
11:50 -10.7 °C -12.9 °C 34496.6 hPa SW 26.9 km/h 26.9 km/h 76 % 0 mm 125.0 W/m2 CLR
11:55 -10.7 °C -12.9 °C 34486.4 hPa SW 20.9 km/h 20.9 km/h 76 % 0 mm 120.0 W/m2 CLR
12:00 -10.7 °C -12.9 °C 34496.6 hPa SSW 20.9 km/h 20.9 km/h 77 % 0 mm 100.0 W/m2 CLR
12:05 -10.7 °C -12.9 °C 34486.4 hPa SW 12.9 km/h 12.9 km/h 77 % 0 mm 83.0 W/m2 CLR
12:10 -10.7 °C -12.9 °C 34486.4 hPa SSW 17.9 km/h 17.9 km/h 77 % 0 mm 84.0 W/m2 CLR
12:15 -10.7 °C -12.7 °C 34486.4 hPa South 26.9 km/h 26.9 km/h 78 % 0 mm 86.0 W/m2 FEW
12:20 -10.7 °C -12.7 °C 34486.4 hPa WSW 9 km/h 9 km/h 79 % 0 mm 90.0 W/m2 FEW
12:25 -10.7 °C -12.7 °C 34486.4 hPa SW 29.8 km/h 29.8 km/h 79 % 0 mm 93.0 W/m2 CLR
12:30 -10.7 °C -12.6 °C 34486.4 hPa SSW 26.9 km/h 26.9 km/h 80 % 0 mm 72.0 W/m2 CLR
12:35 -10.7 °C -12.4 °C 34496.6 hPa SW 18.2 km/h 18.2 km/h 81 % 0 mm 39.0 W/m2 FEW
12:40 -10.7 °C -12.3 °C 34496.6 hPa SW 23.8 km/h 23.8 km/h 82 % 0 mm 53.0 W/m2 SCT
12:45 -10.7 °C -12.1 °C 34496.6 hPa SSW 32.8 km/h 32.8 km/h 84 % 12.7 mm 49.0 W/m2 RA
12:50 -11 °C -12.3 °C 34496.6 hPa WSW 41.7 km/h 41.7 km/h 85 % 20.32 mm 65.0 W/m2 RA
12:55 -11 °C -12.2 °C 34496.6 hPa West 29.8 km/h 29.8 km/h 87 % 20.32 mm 60.0 W/m2 SCT
13:00 -11 °C -12.1 °C 34486.4 hPa WSW 17.9 km/h 17.9 km/h 88 % 20.32 mm 125.0 W/m2 FEW
13:05 -11 °C -12.1 °C 34496.6 hPa WSW 18.2 km/h 18.2 km/h 88 % 20.32 mm 65.0 W/m2 CLR
13:10 -11 °C -12.1 °C 34496.6 hPa WSW 23.8 km/h 23.8 km/h 88 % 20.32 mm 86.0 W/m2 FEW
13:15 -11 °C -12 °C 34496.6 hPa SW 23.8 km/h 23.8 km/h 89 % 33.02 mm 90.0 W/m2 RA
13:20 -11 °C -12 °C 34496.6 hPa WSW 17.9 km/h 17.9 km/h 89 % 38.1 mm 51.0 W/m2 RA
13:25 -11 °C -12 °C 34496.6 hPa SW 25.9 km/h 25.9 km/h 89 % 38.1 mm 47.0 W/m2 RA
13:30 -11.3 °C -12.3 °C 34496.6 hPa WSW 29.8 km/h 29.8 km/h 89 % 38.1 mm 47.0 W/m2 BKN
13:35 -11.3 °C -12.3 °C 34496.6 hPa SW 20.9 km/h 20.9 km/h 89 % 58.42 mm 79.0 W/m2 RA
13:40 -11.3 °C -12.2 °C 34496.6 hPa WSW 20.9 km/h 20.9 km/h 90 % 58.42 mm 114.0 W/m2 RA
13:45 -11.3 °C -12.2 °C 34496.6 hPa SSW 17.9 km/h 17.9 km/h 90 % 45.72 mm 98.0 W/m2 CLR
13:50 -11.3 °C -12.2 °C 34496.6 hPa SW 10.3 km/h 10.3 km/h 90 % 38.1 mm 63.0 W/m2 CLR
13:55 -11.3 °C -12.2 °C 34496.6 hPa SW 29.8 km/h 29.8 km/h 90 % 38.1 mm 121.0 W/m2 CLR
14:00 -11.3 °C -12.2 °C 34496.6 hPa SW 35.7 km/h 35.7 km/h 90 % 38.1 mm 65.0 W/m2 FEW
14:05 -11.3 °C -12.2 °C 34496.6 hPa WSW 26.9 km/h 26.9 km/h 90 % 45.72 mm 98.0 W/m2 RA
14:10 -11.3 °C -12.2 °C 34486.4 hPa WSW 29.8 km/h 29.8 km/h 90 % 58.42 mm 155.0 W/m2 RA
14:12 -11.3 °C -12.2 °C 34496.6 hPa SSW 15.6 km/h 15.6 km/h 90 % 58.42 mm 104.0 W/m2 RA
14:17 -11.3 °C -12.2 °C 34496.6 hPa SSW 26.9 km/h 26.9 km/h 90 % 45.72 mm 104.0 W/m2 CLR
14:22 -11.3 °C -12.2 °C 34486.4 hPa SSW 17.9 km/h 17.9 km/h 90 % 45.72 mm 93.0 W/m2 RA
14:27 -11.3 °C -12.2 °C 34486.4 hPa SW 11.9 km/h 11.9 km/h 90 % 38.1 mm 128.0 W/m2 CLR
14:32 -11.3 °C -12.2 °C 34486.4 hPa WSW 23.3 km/h 23.3 km/h 90 % 33.02 mm 153.0 W/m2 CLR
14:37 -11 °C -11.9 °C 34486.4 hPa SW 15.6 km/h 15.6 km/h 90 % 25.4 mm 98.0 W/m2 CLR
14:42 -11 °C -12 °C 34486.4 hPa SW 26.9 km/h 26.9 km/h 89 % 20.32 mm 46.0 W/m2 CLR
14:47 -11.3 °C -12.3 °C 34486.4 hPa SW 15 km/h 15 km/h 89 % 20.32 mm 47.0 W/m2 FEW
14:52 -11.3 °C -12.3 °C 34486.4 hPa WSW 20.8 km/h 20.8 km/h 89 % 20.32 mm 49.0 W/m2 SCT
14:57 -11.3 °C -12.3 °C 34486.4 hPa SW 23.8 km/h 23.8 km/h 89 % 20.32 mm 40.0 W/m2 BKN
15:02 -11.3 °C -12.3 °C 34486.4 hPa SW 20.9 km/h 20.9 km/h 89 % 12.7 mm 62.0 W/m2 SCT
15:08 -11.3 °C -12.3 °C 34476.3 hPa WSW 17.9 km/h 17.9 km/h 89 % 20.32 mm 63.0 W/m2 RA
15:13 -11.3 °C -12.3 °C 34486.4 hPa SW 11.9 km/h 11.9 km/h 89 % 12.7 mm 33.0 W/m2 SCT
15:18 -11.3 °C -12.2 °C 34476.3 hPa Calm     90 % 12.7 mm 63.0 W/m2 SCT
15:23 -11.3 °C -12.2 °C 34476.3 hPa Calm     90 % 12.7 mm 72.0 W/m2 SCT
15:28 -11.3 °C -12.2 °C 34486.4 hPa SW 23.3 km/h 23.3 km/h 90 % 20.32 mm 42.0 W/m2 RA
15:33 -11.3 °C -12.2 °C 34486.4 hPa SW 17.9 km/h 17.9 km/h 90 % 33.02 mm 30.0 W/m2 RA
15:38 -11.3 °C -12.2 °C 34486.4 hPa SW 23.8 km/h 23.8 km/h 90 % 33.02 mm 30.0 W/m2 BKN
15:43 -11.6 °C -12.4 °C 34486.4 hPa WSW 26.9 km/h 26.9 km/h 90 % 38.1 mm 33.0 W/m2 RA
15:48 -11.6 °C -12.4 °C 34486.4 hPa WSW 35.7 km/h 35.7 km/h 90 % 58.42 mm 47.0 W/m2 RA
15:53 -11.6 °C -12.4 °C 34476.3 hPa SW 20.9 km/h 20.9 km/h 91 % 76.2 mm 62.0 W/m2 RA
15:58 -11.6 °C -12.4 °C 34476.3 hPa SW 29.8 km/h 29.8 km/h 91 % 96.52 mm 148.0 W/m2 RA
16:08 -11.6 °C -12.4 °C 34476.3 hPa WSW 26.9 km/h 26.9 km/h 91 % 91.44 mm 72.0 W/m2 CLR
16:13 -11.9 °C -12.7 °C 34486.4 hPa SSW 29.8 km/h 29.8 km/h 91 % 96.52 mm 44.0 W/m2 RA
16:18 -11.9 °C -12.7 °C 34476.3 hPa SSW 20.9 km/h 20.9 km/h 91 % 96.52 mm 74.0 W/m2 SCT
16:23 -11.9 °C -12.7 °C 34476.3 hPa South 18.2 km/h 18.2 km/h 91 % 104.14 mm 104.0 W/m2 RA
16:28 -11.9 °C -12.7 °C 34486.4 hPa SSW 29.8 km/h 29.8 km/h 91 % 104.14 mm 63.0 W/m2 RA
16:33 -11.9 °C -12.8 °C 34476.3 hPa SSW 29.8 km/h 29.8 km/h 90 % 96.52 mm 40.0 W/m2 RA
16:38 -11.9 °C -12.7 °C 34476.3 hPa South 23.8 km/h 23.8 km/h 91 % 96.52 mm 86.0 W/m2 SCT
16:43 -11.9 °C -12.7 °C 34476.3 hPa SSE 23.8 km/h 23.8 km/h 91 % 83.82 mm 53.0 W/m2 FEW
16:48 -11.9 °C -12.7 °C 34462.7 hPa SSE 26.9 km/h 26.9 km/h 91 % 63.5 mm 58.0 W/m2 FEW
16:53 -11.9 °C -12.7 °C 34462.7 hPa SSE 32.8 km/h 32.8 km/h 91 % 45.72 mm 46.0 W/m2 SCT
16:58 -11.9 °C -12.7 °C 34452.6 hPa SE 17.9 km/h 17.9 km/h 91 % 33.02 mm 123.0 W/m2 SCT
17:03 -11.9 °C -12.7 °C 34442.4 hPa SE 10.3 km/h 10.3 km/h 91 % 33.02 mm 149.0 W/m2 RA
17:08 -11.9 °C -12.7 °C 34442.4 hPa Calm     91 % 33.02 mm 105.0 W/m2 CLR
17:13 -11.9 °C -12.7 °C 34452.6 hPa South 20.9 km/h 20.9 km/h 91 % 25.4 mm 69.0 W/m2 CLR
17:18 -11.6 °C -12.4 °C 34452.6 hPa SSE 15 km/h 15 km/h 91 % 25.4 mm 104.0 W/m2 FEW
17:23 -11.6 °C -12.4 °C 34442.4 hPa Calm     91 % 20.32 mm 100.0 W/m2 CLR
17:28 -11.6 °C -12.4 °C 34442.4 hPa Calm     91 % 12.7 mm 176.0 W/m2 CLR
17:33 -11.6 °C -12.4 °C 34442.4 hPa Calm     90 % 7.62 mm 209.0 W/m2 CLR
17:38 -11.3 °C -12.2 °C 34442.4 hPa SE 23.8 km/h 23.8 km/h 90 % 7.62 mm 165.0 W/m2 CLR
17:43 -11.3 °C -12.3 °C 34442.4 hPa SE 26.9 km/h 26.9 km/h 89 % 7.62 mm 239.0 W/m2 CLR
17:48 -11 °C -12 °C 34442.4 hPa South 15 km/h 15 km/h 89 % 7.62 mm 158.0 W/m2 CLR
17:53 -11 °C -12 °C 34428.8 hPa SE 9 km/h 9 km/h 89 % 7.62 mm 190.0 W/m2 CLR
17:58 -11 °C -12.1 °C 34428.8 hPa SE 12.9 km/h 12.9 km/h 88 % 7.62 mm 353.0 W/m2 CLR
18:03 -10.7 °C -11.8 °C 34428.8 hPa ESE 9 km/h 9 km/h 88 % 0 mm 355.0 W/m2 CLR
18:08 -10.7 °C -11.8 °C 34428.8 hPa Calm     88 % 0 mm 174.0 W/m2 CLR
18:13 -10.7 °C -11.8 °C 34428.8 hPa SSE 6 km/h 6 km/h 87 % 0 mm 146.0 W/m2 CLR
18:18 -10.7 °C -11.9 °C 34428.8 hPa Calm     86 % 0 mm 165.0 W/m2 CLR
18:23 -10.7 °C -11.9 °C 34428.8 hPa Calm     86 % 0 mm 98.0 W/m2 CLR
18:28 -10.7 °C -11.9 °C 34428.8 hPa Calm     86 % 0 mm 127.0 W/m2 CLR
18:33 -10.7 °C -11.9 °C 34428.8 hPa SE 3.1 km/h   86 % 0 mm 90.0 W/m2 CLR
18:38 -10.7 °C -11.9 °C 34428.8 hPa Calm     86 % 0 mm 102.0 W/m2 CLR
18:43 -10.7 °C -11.9 °C 34428.8 hPa Calm     86 % 0 mm 91.0 W/m2 CLR
18:48 -10.7 °C -12.1 °C 34442.4 hPa Calm     85 % 0 mm 84.0 W/m2 CLR
18:53 -10.7 °C -12.1 °C 34428.8 hPa SE 9 km/h 9 km/h 84 % 0 mm 62.0 W/m2 FEW
18:58 -10.7 °C -12.1 °C 34428.8 hPa SSE 6 km/h 6 km/h 84 % 0 mm 47.0 W/m2 FEW
19:03 -11 °C -12.4 °C 34428.8 hPa Calm     84 % 0 mm 44.0 W/m2 SCT
19:08 -11 °C -12.4 °C 34428.8 hPa Calm     84 % 0 mm 37.0 W/m2 BKN
19:13 -11 °C -12.4 °C 34428.8 hPa Calm     84 % 0 mm 33.0 W/m2 BKN
19:18 -11 °C -12.4 °C 34428.8 hPa Calm     84 % 0 mm 44.0 W/m2 BKN
19:23 -11 °C -12.4 °C 34428.8 hPa Calm     84 % 0 mm 39.0 W/m2 BKN
19:28 -11 °C -12.3 °C 34428.8 hPa Calm     85 % 0 mm 35.0 W/m2 BKN
19:33 -11 °C -12.3 °C 34428.8 hPa Calm     86 % 0 mm 25.0 W/m2 BKN
19:38 -11 °C -12.3 °C 34428.8 hPa Calm     85 % 0 mm 18.0 W/m2 BKN
19:43 -11 °C -12.3 °C 34428.8 hPa Calm     85 % 0 mm 16.0 W/m2 BKN
19:48 -11 °C -12.3 °C 34428.8 hPa Calm     85 % 0 mm 11.0 W/m2 BKN
19:53 -11 °C -12.3 °C 34428.8 hPa Calm     86 % 0 mm 7.0 W/m2 BKN
19:58 -11 °C -12.3 °C 34428.8 hPa Calm     86 % 0 mm 7.0 W/m2 BKN
20:03 -11 °C -12.2 °C 34428.8 hPa Calm     87 % 0 mm 5.0 W/m2 OVC
20:08 -11.3 °C -12.4 °C 34428.8 hPa Calm     87 % 0 mm 0.0 W/m2 OVC
20:13 -11.3 °C -12.6 °C 34428.8 hPa Calm     86 % 0 mm 0.0 W/m2 OVC
20:18 -11.3 °C -12.7 °C 34428.8 hPa Calm     85 % 0 mm 0.0 W/m2 OVC
20:23 -11.3 °C -12.7 °C 34428.8 hPa Calm     85 % 0 mm 0.0 W/m2 CLR
20:28 -11.3 °C -12.7 °C 34428.8 hPa Calm     85 % 0 mm 0.0 W/m2 CLR
20:33 -11.3 °C -12.7 °C 34428.8 hPa Calm     84 % 0 mm 0.0 W/m2 CLR
20:38 -11.3 °C -12.7 °C 34428.8 hPa Calm     84 % 0 mm 0.0 W/m2 CLR
20:43 -11.3 °C -12.7 °C 34428.8 hPa Calm     84 % 0 mm 0.0 W/m2 CLR
20:48 -11.3 °C -12.7 °C 34428.8 hPa Calm     85 % 0 mm 0.0 W/m2 CLR
20:53 -11.6 °C -12.9 °C 34442.4 hPa Calm     85 % 0 mm 0.0 W/m2 CLR
20:58 -11.6 °C -12.9 °C 34442.4 hPa Calm     85 % 0 mm 0.0 W/m2 CLR
21:03 -11.6 °C -12.9 °C 34442.4 hPa Calm     86 % 0 mm 0.0 W/m2 CLR
21:09 -11.6 °C -12.9 °C 34452.6 hPa Calm     86 % 0 mm 0.0 W/m2 CLR
21:14 -11.9 °C -13.2 °C 34452.6 hPa Calm     86 % 0 mm 0.0 W/m2 CLR
21:19 -11.9 °C -13.1 °C 34452.6 hPa Calm     87 % 0 mm 0.0 W/m2 CLR
21:24 -11.9 °C -13.1 °C 34452.6 hPa Calm     87 % 0 mm 0.0 W/m2 CLR
21:29 -12.2 °C -13.3 °C 34452.6 hPa Calm     88 % 0 mm 0.0 W/m2 CLR
21:34 -12.2 °C -13.3 °C 34452.6 hPa Calm     88 % 0 mm 0.0 W/m2 CLR
21:39 -12.2 °C -13.2 °C 34452.6 hPa Calm     89 % 0 mm 0.0 W/m2 CLR
21:44 -12.2 °C -13.2 °C 34462.7 hPa Calm     89 % 0 mm 0.0 W/m2 CLR
21:49 -12.2 °C -13.2 °C 34462.7 hPa Calm     89 % 0 mm 0.0 W/m2 CLR
21:54 -12.2 °C -13.2 °C 34462.7 hPa Calm     89 % 0 mm 0.0 W/m2 CLR
21:59 -12.2 °C -13.1 °C 34462.7 hPa Calm     90 % 0 mm 0.0 W/m2 CLR
22:04 -12.2 °C -13.1 °C 34462.7 hPa Calm     90 % 0 mm 0.0 W/m2 CLR
22:09 -12.2 °C -13.1 °C 34462.7 hPa Calm     90 % 0 mm 0.0 W/m2 CLR
22:14 -12.6 °C -13.4 °C 34462.7 hPa Calm     90 % 0 mm 0.0 W/m2 CLR
22:19 -12.6 °C -13.4 °C 34462.7 hPa Calm     90 % 0 mm 0.0 W/m2 CLR
22:24 -12.6 °C -13.4 °C 34462.7 hPa Calm     90 % 0 mm 0.0 W/m2 CLR
22:29 -12.6 °C -13.4 °C 34462.7 hPa Calm     90 % 0 mm 0.0 W/m2 CLR
22:34 -12.8 °C -13.7 °C 34462.7 hPa Calm     90 % 0 mm 0.0 W/m2 CLR
22:39 -12.8 °C -13.7 °C 34462.7 hPa Calm     90 % 0 mm 0.0 W/m2 CLR
22:44 -12.8 °C -13.7 °C 34462.7 hPa Calm     90 % 0 mm 0.0 W/m2 CLR
22:49 -12.8 °C -13.7 °C 34462.7 hPa Calm     90 % 0 mm 0.0 W/m2 CLR
22:54 -13.2 °C -14 °C 34462.7 hPa Calm     90 % 0 mm 0.0 W/m2 CLR
22:59 -13.2 °C -14.1 °C 34462.7 hPa Calm     89 % 0 mm 0.0 W/m2 CLR
23:04 -13.2 °C -14.3 °C 34462.7 hPa SSE 11.9 km/h 11.9 km/h 87 % 0 mm 0.0 W/m2 CLR
23:09 -13.2 °C -14.4 °C 34462.7 hPa South 9 km/h 9 km/h 86 % 0 mm 0.0 W/m2 CLR
23:14 -13.2 °C -14.4 °C 34476.3 hPa South 9 km/h 9 km/h 86 % 0 mm 0.0 W/m2 CLR
23:19 -13.2 °C -14.4 °C 34476.3 hPa South 9 km/h 9 km/h 86 % 0 mm 0.0 W/m2 CLR
23:24 -13.2 °C -14.4 °C 34476.3 hPa South 15 km/h 15 km/h 86 % 0 mm 0.0 W/m2 CLR
23:29 -12.8 °C -14.2 °C 34476.3 hPa South 23.8 km/h 23.8 km/h 85 % 0 mm 0.0 W/m2 CLR
23:34 -12.8 °C -14.3 °C 34476.3 hPa SSW 20.9 km/h 20.9 km/h 83 % 0 mm 0.0 W/m2 CLR
23:39 -12.8 °C -14.6 °C 34476.3 hPa SSW 23.8 km/h 23.8 km/h 81 % 0 mm 0.0 W/m2 CLR
23:44 -12.6 °C -14.4 °C 34476.3 hPa SSW 29.8 km/h 29.8 km/h 79 % 0 mm 0.0 W/m2 CLR
23:49 -12.6 °C -14.7 °C 34476.3 hPa SSW 26.9 km/h 26.9 km/h 77 % 0 mm 0.0 W/m2 CLR
23:54 -12.6 °C -14.7 °C 34476.3 hPa SSW 26.9 km/h 26.9 km/h 77 % 0 mm 0.0 W/m2 CLR
23:59 -12.2 °C -14.3 °C 34476.3 hPa SSW 20.9 km/h 20.9 km/h 77 % 0 mm 0.0 W/m2 CLR
Lo Temps de Massalio
Compliments of Weather Underground - 1.25 mb